Dobrota — J8UW4 — position and weather

sailwx.info

Track history (hours):
 
Tides and Currents Weather Stations Pressure Air Temp Water Temp Dewpoint Dewpoint Depression Visibility Wind Speed Wind Dir Waves Ship Positions

Dobrota

Last reported at 2014-Oct-25 02:12 UTC. Time now 2014-Oct-25 07:03 UTC.
Position N 37°51' E 024°35'.

Length 185 m; draft 5.9 m.

Type: Cargo ship. MMSI: 376409000.

Date/timePositionNaut miles runAvg speedWind from/ knotsBaromVisibWave heightAir tempDewpointWater temp
2014-Oct-25 02:12N 37°51' E 024°35'812.3
2014-Oct-25 01:31N 37°43' E 024°31'1212.5
2014-Oct-25 00:33N 37°33' E 024°25'1412.6
2014-Oct-24 23:24N 37°20' E 024°15'2312.3
2014-Oct-24 21:33N 37°02' E 023°59'1212.1
2014-Oct-24 20:33N 36°52' E 023°49'  
2014-Oct-15 23:23N 36°23' E 022°45'1011.4
2014-Oct-15 22:29N 36°25' E 022°57'2310.6
2014-Oct-15 20:20N 36°32' E 023°24'1011.8
2014-Oct-15 19:29N 36°39' E 023°33'1411.6
2014-Oct-15 18:19N 36°48' E 023°45'911.6
2014-Oct-15 17:33N 36°56' E 023°52'1211.7
2014-Oct-15 16:34N 37°05' E 023°60'1311.8
2014-Oct-15 15:29N 37°16' E 024°09'1212.0
2014-Oct-15 14:27N 37°26' E 024°18'1111.9
2014-Oct-15 13:34N 37°35' E 024°25'1212.1
2014-Oct-15 12:34N 37°46' E 024°30'1211.8
2014-Oct-15 11:33N 37°57' E 024°36'1511.6
2014-Oct-15 10:15N 38°11' E 024°43'912.5
2014-Oct-15 09:34N 38°19' E 024°47'3912.9
2014-Oct-15 06:31N 38°55' E 025°09'1313.0
2014-Oct-15 05:33N 39°06' E 025°15'1212.1
2014-Oct-15 04:33N 39°17' E 025°22'1312.8
2014-Oct-15 03:33N 39°28' E 025°29'1212.2
2014-Oct-15 02:33N 39°39' E 025°38'  
Track history (hours):
 
Tides and Currents Weather Stations Pressure Air Temp Water Temp Dewpoint Dewpoint Depression Visibility Wind Speed Wind Dir Waves Ship Positions

Dobrota

Last reported at 2014-Oct-25 02:12 UTC. Time now 2014-Oct-25 07:03 UTC.
Position N 37°51' E 024°35'.

Length 185 m; draft 5.9 m.

Type: Cargo ship. MMSI: 376409000.

Date/timePositionNaut miles runAvg speedWind from/ knotsBaromVisibWave heightAir tempDewpointWater temp
2014-Oct-25 02:12N 37°51' E 024°35'812.3
2014-Oct-25 01:31N 37°43' E 024°31'1212.5
2014-Oct-25 00:33N 37°33' E 024°25'1412.6
2014-Oct-24 23:24N 37°20' E 024°15'2312.3
2014-Oct-24 21:33N 37°02' E 023°59'1212.1
2014-Oct-24 20:33N 36°52' E 023°49'  
2014-Oct-15 23:23N 36°23' E 022°45'1011.4
2014-Oct-15 22:29N 36°25' E 022°57'2310.6
2014-Oct-15 20:20N 36°32' E 023°24'1011.8
2014-Oct-15 19:29N 36°39' E 023°33'1411.6
2014-Oct-15 18:19N 36°48' E 023°45'911.6
2014-Oct-15 17:33N 36°56' E 023°52'1211.7
2014-Oct-15 16:34N 37°05' E 023°60'1311.8
2014-Oct-15 15:29N 37°16' E 024°09'1212.0
2014-Oct-15 14:27N 37°26' E 024°18'1111.9
2014-Oct-15 13:34N 37°35' E 024°25'1212.1
2014-Oct-15 12:34N 37°46' E 024°30'1211.8
2014-Oct-15 11:33N 37°57' E 024°36'1511.6
2014-Oct-15 10:15N 38°11' E 024°43'912.5
2014-Oct-15 09:34N 38°19' E 024°47'3912.9
2014-Oct-15 06:31N 38°55' E 025°09'1313.0
2014-Oct-15 05:33N 39°06' E 025°15'1212.1
2014-Oct-15 04:33N 39°17' E 025°22'1312.8
2014-Oct-15 03:33N 39°28' E 025°29'1212.2
2014-Oct-15 02:33N 39°39' E 025°38'  

Dump ship's entire track history